Airfield :
LOGIN :

Register | Disclaimer

   EN    FR    IT 

 










Legend :    VFR   Marginal VFR   IFR   Intensive IFR   Very Intensive IFR
Visi :
Ceiling :
>= 8 km
>= 3000ft
5 to 8 km
1000 to 3000 ft
1500m to 5 km
500 to 1000 ft
800 to 1500m
200 to 500 ft
< 800m
< 200 ft
Symbols :   Thunderstorms  Fog  Heavy snow  Heavy precipitations  Wind > 20 kt
SIGMETs :     Misc.  Thunderstorms  Icing  Turbulence  Mountain Waves  Volcanic Ashes







- Airport Elevation : 125 ft
- IATA code : MGL


EDLN - Mönchengladbach

CURRENT METAR :
  • 140950Z 28009KT 240V310 9999 FEW024 SCT038 21/16 Q1014

EXPIRED METARs :
  • 140920Z 29010KT 9999 SCT020 SCT040 20/16 Q1014
  • 140850Z 29009KT 9999 SCT015 BKN027 19/16 Q1013
  • 140820Z 29006KT 8000 SCT010 BKN030 19/17 Q1013
  • 140750Z 27005KT 7000 SCT008 BKN014 18/17 Q1013
  • 140720Z 26004KT 6000 BKN009 18/17 Q1013

TAF TAF EDLN
Valid from the 14 at 09:00 until the 14 at 18:00 UTC


140800Z 1409/1418 27009KT 9999 SCT007 BKN014
BECMG 1409/1412 SCT012 BKN025
No reported NOTAMs for that airfield.



MET'MAP, your aeronautical weather chart ! - Copyright ORBIFLY December 2007 - Disclaimer

ORBIFLY MET'MAP TEAM :

Programming & Development : Alexandra Zaïnal
Concept & Development : Baudouin d'Aumeries
Co-Development & Prog : Marc-Olivier Méhu
Technical & hardware support : Manuel Goepfert

Contact : metmap@orbifly.com




SOURCES & CREDITS :

   NOAA